sensor_id;sensor_type;location;lat;lon;timestamp;P1;durP1;ratioP1;P2;durP2;ratioP2
64932;SDS011;51446;53.850;10.662;2023-04-25T00:00:11;8.77;;;5.13;;
64932;SDS011;51446;53.850;10.662;2023-04-25T00:02:36;8.02;;;4.80;;
64932;SDS011;51446;53.850;10.662;2023-04-25T00:05:02;8.77;;;4.85;;
64932;SDS011;51446;53.850;10.662;2023-04-25T00:07:28;12.30;;;4.82;;
64932;SDS011;51446;53.850;10.662;2023-04-25T00:09:53;7.80;;;4.60;;
64932;SDS011;51446;53.850;10.662;2023-04-25T00:12:18;12.30;;;5.00;;
64932;SDS011;51446;53.850;10.662;2023-04-25T00:14:44;8.50;;;4.72;;
64932;SDS011;51446;53.850;10.662;2023-04-25T00:17:11;9.32;;;4.97;;
64932;SDS011;51446;53.850;10.662;2023-04-25T00:19:37;12.53;;;5.03;;
64932;SDS011;51446;53.850;10.662;2023-04-25T00:22:02;12.17;;;5.23;;
64932;SDS011;51446;53.850;10.662;2023-04-25T00:24:28;10.77;;;5.00;;
64932;SDS011;51446;53.850;10.662;2023-04-25T00:26:53;12.37;;;5.50;;
64932;SDS011;51446;53.850;10.662;2023-04-25T00:29:18;10.47;;;5.03;;
64932;SDS011;51446;53.850;10.662;2023-04-25T00:31:43;11.80;;;5.07;;
64932;SDS011;51446;53.850;10.662;2023-04-25T00:34:09;8.30;;;5.07;;
64932;SDS011;51446;53.850;10.662;2023-04-25T00:36:34;12.90;;;4.85;;
64932;SDS011;51446;53.850;10.662;2023-04-25T00:38:59;12.32;;;5.20;;
64932;SDS011;51446;53.850;10.662;2023-04-25T00:41:25;8.17;;;5.30;;
64932;SDS011;51446;53.850;10.662;2023-04-25T00:43:51;14.50;;;5.47;;
64932;SDS011;51446;53.850;10.662;2023-04-25T00:46:19;15.88;;;5.15;;
64932;SDS011;51446;53.850;10.662;2023-04-25T00:48:44;12.27;;;4.63;;
64932;SDS011;51446;53.850;10.662;2023-04-25T00:51:10;11.57;;;4.88;;
64932;SDS011;51446;53.850;10.662;2023-04-25T00:53:40;13.57;;;4.60;;
64932;SDS011;51446;53.850;10.662;2023-04-25T00:56:06;16.13;;;4.30;;
64932;SDS011;51446;53.850;10.662;2023-04-25T00:58:31;13.23;;;3.80;;
64932;SDS011;51446;53.850;10.662;2023-04-25T01:00:56;14.27;;;4.00;;
64932;SDS011;51446;53.850;10.662;2023-04-25T01:03:22;14.00;;;3.57;;
64932;SDS011;51446;53.850;10.662;2023-04-25T01:05:47;20.25;;;3.80;;
64932;SDS011;51446;53.850;10.662;2023-04-25T01:08:13;12.37;;;3.43;;
64932;SDS011;51446;53.850;10.662;2023-04-25T01:10:39;14.13;;;3.15;;
64932;SDS011;51446;53.850;10.662;2023-04-25T01:13:05;10.83;;;4.00;;
64932;SDS011;51446;53.850;10.662;2023-04-25T01:15:30;16.40;;;4.00;;
64932;SDS011;51446;53.850;10.662;2023-04-25T01:17:56;10.27;;;3.53;;
64932;SDS011;51446;53.850;10.662;2023-04-25T01:23:44;12.45;;;3.80;;
64932;SDS011;51446;53.850;10.662;2023-04-25T01:26:10;14.88;;;3.53;;
64932;SDS011;51446;53.850;10.662;2023-04-25T01:28:37;16.27;;;4.00;;
64932;SDS011;51446;53.850;10.662;2023-04-25T01:31:06;18.83;;;3.75;;
64932;SDS011;51446;53.850;10.662;2023-04-25T01:33:32;15.10;;;3.70;;
64932;SDS011;51446;53.850;10.662;2023-04-25T01:35:57;13.00;;;3.60;;
64932;SDS011;51446;53.850;10.662;2023-04-25T01:38:23;14.27;;;3.85;;
64932;SDS011;51446;53.850;10.662;2023-04-25T01:40:48;18.63;;;4.03;;
64932;SDS011;51446;53.850;10.662;2023-04-25T01:43:15;19.17;;;4.05;;
64932;SDS011;51446;53.850;10.662;2023-04-25T01:45:41;18.37;;;4.07;;
64932;SDS011;51446;53.850;10.662;2023-04-25T01:48:11;17.05;;;4.50;;
64932;SDS011;51446;53.850;10.662;2023-04-25T01:50:38;17.98;;;4.05;;
64932;SDS011;51446;53.850;10.662;2023-04-25T01:53:04;18.00;;;4.23;;
64932;SDS011;51446;53.850;10.662;2023-04-25T01:55:30;17.20;;;4.28;;
64932;SDS011;51446;53.850;10.662;2023-04-25T01:57:55;18.00;;;4.20;;
64932;SDS011;51446;53.850;10.662;2023-04-25T02:00:21;19.70;;;3.97;;
64932;SDS011;51446;53.850;10.662;2023-04-25T02:02:46;13.10;;;4.25;;
64932;SDS011;51446;53.850;10.662;2023-04-25T02:05:11;19.17;;;4.23;;
64932;SDS011;51446;53.850;10.662;2023-04-25T02:07:37;16.40;;;4.10;;
64932;SDS011;51446;53.850;10.662;2023-04-25T02:10:02;15.70;;;3.97;;
64932;SDS011;51446;53.850;10.662;2023-04-25T02:12:28;17.63;;;4.03;;
64932;SDS011;51446;53.850;10.662;2023-04-25T02:14:53;15.17;;;4.50;;
64932;SDS011;51446;53.850;10.662;2023-04-25T02:17:19;16.93;;;4.03;;
64932;SDS011;51446;53.850;10.662;2023-04-25T02:19:46;20.23;;;4.20;;
64932;SDS011;51446;53.850;10.662;2023-04-25T02:22:12;18.42;;;3.85;;
64932;SDS011;51446;53.850;10.662;2023-04-25T02:24:38;16.73;;;3.87;;
64932;SDS011;51446;53.850;10.662;2023-04-25T02:27:03;17.57;;;4.33;;
64932;SDS011;51446;53.850;10.662;2023-04-25T02:29:29;19.40;;;4.18;;
64932;SDS011;51446;53.850;10.662;2023-04-25T02:31:54;15.00;;;3.40;;
64932;SDS011;51446;53.850;10.662;2023-04-25T02:34:20;18.57;;;4.07;;
64932;SDS011;51446;53.850;10.662;2023-04-25T02:36:45;21.63;;;4.57;;
64932;SDS011;51446;53.850;10.662;2023-04-25T02:39:10;15.33;;;4.23;;
64932;SDS011;51446;53.850;10.662;2023-04-25T02:41:35;25.43;;;5.03;;
64932;SDS011;51446;53.850;10.662;2023-04-25T02:44:01;16.27;;;4.40;;
64932;SDS011;51446;53.850;10.662;2023-04-25T02:46:26;21.13;;;4.28;;
64932;SDS011;51446;53.850;10.662;2023-04-25T02:48:51;24.75;;;4.57;;
64932;SDS011;51446;53.850;10.662;2023-04-25T02:51:16;15.47;;;3.93;;
64932;SDS011;51446;53.850;10.662;2023-04-25T02:53:42;11.60;;;3.90;;
64932;SDS011;51446;53.850;10.662;2023-04-25T02:56:07;19.37;;;4.27;;
64932;SDS011;51446;53.850;10.662;2023-04-25T02:58:33;17.47;;;4.83;;
64932;SDS011;51446;53.850;10.662;2023-04-25T03:00:58;17.57;;;4.23;;
64932;SDS011;51446;53.850;10.662;2023-04-25T03:03:23;14.87;;;4.07;;
64932;SDS011;51446;53.850;10.662;2023-04-25T03:05:49;17.97;;;3.90;;
64932;SDS011;51446;53.850;10.662;2023-04-25T03:08:15;18.23;;;4.40;;
64932;SDS011;51446;53.850;10.662;2023-04-25T03:10:41;18.35;;;4.15;;
64932;SDS011;51446;53.850;10.662;2023-04-25T03:13:06;17.20;;;4.18;;
64932;SDS011;51446;53.850;10.662;2023-04-25T03:15:32;19.30;;;4.83;;
64932;SDS011;51446;53.850;10.662;2023-04-25T03:17:57;14.67;;;3.30;;
64932;SDS011;51446;53.850;10.662;2023-04-25T03:20:22;18.57;;;4.27;;
64932;SDS011;51446;53.850;10.662;2023-04-25T03:22:48;14.80;;;3.53;;
64932;SDS011;51446;53.850;10.662;2023-04-25T03:25:13;10.53;;;3.47;;
64932;SDS011;51446;53.850;10.662;2023-04-25T03:27:38;15.60;;;3.67;;
64932;SDS011;51446;53.850;10.662;2023-04-25T03:30:04;21.03;;;5.03;;
64932;SDS011;51446;53.850;10.662;2023-04-25T03:32:29;20.08;;;3.95;;
64932;SDS011;51446;53.850;10.662;2023-04-25T03:34:55;12.07;;;3.67;;
64932;SDS011;51446;53.850;10.662;2023-04-25T03:37:20;21.57;;;4.50;;
64932;SDS011;51446;53.850;10.662;2023-04-25T03:39:46;14.77;;;3.75;;
64932;SDS011;51446;53.850;10.662;2023-04-25T03:42:11;21.57;;;4.30;;
64932;SDS011;51446;53.850;10.662;2023-04-25T03:44:36;15.57;;;3.60;;
64932;SDS011;51446;53.850;10.662;2023-04-25T03:47:01;24.47;;;4.50;;
64932;SDS011;51446;53.850;10.662;2023-04-25T03:49:27;14.53;;;4.20;;
64932;SDS011;51446;53.850;10.662;2023-04-25T03:51:52;20.00;;;4.03;;
64932;SDS011;51446;53.850;10.662;2023-04-25T03:54:17;16.20;;;3.80;;
64932;SDS011;51446;53.850;10.662;2023-04-25T03:56:42;15.30;;;3.53;;
64932;SDS011;51446;53.850;10.662;2023-04-25T03:59:08;11.90;;;3.87;;
64932;SDS011;51446;53.850;10.662;2023-04-25T04:01:33;14.17;;;4.23;;
64932;SDS011;51446;53.850;10.662;2023-04-25T04:03:58;14.23;;;3.53;;
64932;SDS011;51446;53.850;10.662;2023-04-25T04:06:23;15.47;;;3.83;;
64932;SDS011;51446;53.850;10.662;2023-04-25T04:08:49;20.70;;;4.10;;
64932;SDS011;51446;53.850;10.662;2023-04-25T04:11:14;20.50;;;4.10;;
64932;SDS011;51446;53.850;10.662;2023-04-25T04:13:39;17.13;;;4.03;;
64932;SDS011;51446;53.850;10.662;2023-04-25T04:16:05;11.17;;;3.30;;
64932;SDS011;51446;53.850;10.662;2023-04-25T04:18:30;16.43;;;3.70;;
64932;SDS011;51446;53.850;10.662;2023-04-25T04:20:55;15.30;;;4.37;;
64932;SDS011;51446;53.850;10.662;2023-04-25T04:23:22;18.55;;;4.10;;
64932;SDS011;51446;53.850;10.662;2023-04-25T04:25:48;18.03;;;4.07;;
64932;SDS011;51446;53.850;10.662;2023-04-25T04:28:13;14.67;;;3.57;;
64932;SDS011;51446;53.850;10.662;2023-04-25T04:30:38;13.17;;;3.50;;
64932;SDS011;51446;53.850;10.662;2023-04-25T04:33:04;12.30;;;4.60;;
64932;SDS011;51446;53.850;10.662;2023-04-25T04:35:29;18.27;;;3.73;;
64932;SDS011;51446;53.850;10.662;2023-04-25T04:37:55;16.90;;;4.10;;
64932;SDS011;51446;53.850;10.662;2023-04-25T04:40:21;18.63;;;4.75;;
64932;SDS011;51446;53.850;10.662;2023-04-25T04:42:46;14.87;;;4.43;;
64932;SDS011;51446;53.850;10.662;2023-04-25T04:45:12;12.43;;;4.10;;
64932;SDS011;51446;53.850;10.662;2023-04-25T04:47:38;16.77;;;3.93;;
64932;SDS011;51446;53.850;10.662;2023-04-25T04:50:05;19.33;;;3.40;;
64932;SDS011;51446;53.850;10.662;2023-04-25T04:52:32;16.30;;;4.38;;
64932;SDS011;51446;53.850;10.662;2023-04-25T04:54:57;13.87;;;3.83;;
64932;SDS011;51446;53.850;10.662;2023-04-25T04:57:22;12.83;;;3.83;;
64932;SDS011;51446;53.850;10.662;2023-04-25T04:59:47;13.63;;;3.40;;
64932;SDS011;51446;53.850;10.662;2023-04-25T05:02:13;19.50;;;3.63;;
64932;SDS011;51446;53.850;10.662;2023-04-25T05:04:38;16.50;;;4.00;;
64932;SDS011;51446;53.850;10.662;2023-04-25T05:07:04;14.55;;;3.65;;
64932;SDS011;51446;53.850;10.662;2023-04-25T05:09:29;15.37;;;4.03;;
64932;SDS011;51446;53.850;10.662;2023-04-25T05:11:55;16.83;;;4.10;;
64932;SDS011;51446;53.850;10.662;2023-04-25T05:14:20;19.13;;;4.67;;
64932;SDS011;51446;53.850;10.662;2023-04-25T05:16:46;19.00;;;4.10;;
64932;SDS011;51446;53.850;10.662;2023-04-25T05:19:12;14.60;;;3.40;;
64932;SDS011;51446;53.850;10.662;2023-04-25T05:21:37;13.27;;;3.37;;
64932;SDS011;51446;53.850;10.662;2023-04-25T05:24:03;11.87;;;3.40;;
64932;SDS011;51446;53.850;10.662;2023-04-25T05:26:28;15.70;;;4.07;;
64932;SDS011;51446;53.850;10.662;2023-04-25T05:28:56;15.95;;;3.78;;
64932;SDS011;51446;53.850;10.662;2023-04-25T05:31:22;12.50;;;3.33;;
64932;SDS011;51446;53.850;10.662;2023-04-25T05:33:47;15.00;;;3.97;;
64932;SDS011;51446;53.850;10.662;2023-04-25T05:36:12;13.63;;;3.90;;
64932;SDS011;51446;53.850;10.662;2023-04-25T05:38:37;17.43;;;4.17;;
64932;SDS011;51446;53.850;10.662;2023-04-25T05:41:02;16.73;;;3.30;;
64932;SDS011;51446;53.850;10.662;2023-04-25T05:43:28;13.30;;;3.87;;
64932;SDS011;51446;53.850;10.662;2023-04-25T05:45:53;20.13;;;3.50;;
64932;SDS011;51446;53.850;10.662;2023-04-25T05:48:18;12.67;;;3.60;;
64932;SDS011;51446;53.850;10.662;2023-04-25T05:50:43;16.13;;;4.13;;
64932;SDS011;51446;53.850;10.662;2023-04-25T05:53:09;15.73;;;3.60;;
64932;SDS011;51446;53.850;10.662;2023-04-25T05:55:34;12.57;;;3.30;;
64932;SDS011;51446;53.850;10.662;2023-04-25T05:57:59;19.02;;;3.55;;
64932;SDS011;51446;53.850;10.662;2023-04-25T06:00:25;11.13;;;3.10;;
64932;SDS011;51446;53.850;10.662;2023-04-25T06:02:50;15.13;;;4.27;;
64932;SDS011;51446;53.850;10.662;2023-04-25T06:05:15;14.83;;;3.77;;
64932;SDS011;51446;53.850;10.662;2023-04-25T06:07:41;17.40;;;3.00;;
64932;SDS011;51446;53.850;10.662;2023-04-25T06:10:06;16.33;;;3.40;;
64932;SDS011;51446;53.850;10.662;2023-04-25T06:12:32;20.90;;;3.97;;
64932;SDS011;51446;53.850;10.662;2023-04-25T06:14:58;14.97;;;3.40;;
64932;SDS011;51446;53.850;10.662;2023-04-25T06:17:24;10.45;;;3.15;;
64932;SDS011;51446;53.850;10.662;2023-04-25T06:19:49;16.47;;;4.07;;
64932;SDS011;51446;53.850;10.662;2023-04-25T06:22:14;13.00;;;3.00;;
64932;SDS011;51446;53.850;10.662;2023-04-25T06:24:39;15.40;;;3.20;;
64932;SDS011;51446;53.850;10.662;2023-04-25T06:27:04;14.30;;;2.90;;
64932;SDS011;51446;53.850;10.662;2023-04-25T06:29:30;15.33;;;3.13;;
64932;SDS011;51446;53.850;10.662;2023-04-25T06:31:55;12.47;;;3.60;;
64932;SDS011;51446;53.850;10.662;2023-04-25T06:34:20;13.20;;;3.73;;
64932;SDS011;51446;53.850;10.662;2023-04-25T06:36:46;13.23;;;3.20;;
64932;SDS011;51446;53.850;10.662;2023-04-25T06:39:11;13.77;;;3.93;;
64932;SDS011;51446;53.850;10.662;2023-04-25T06:41:36;16.43;;;3.40;;
64932;SDS011;51446;53.850;10.662;2023-04-25T06:44:02;11.38;;;3.28;;
64932;SDS011;51446;53.850;10.662;2023-04-25T06:46:27;12.75;;;3.63;;
64932;SDS011;51446;53.850;10.662;2023-04-25T06:48:52;12.23;;;3.57;;
64932;SDS011;51446;53.850;10.662;2023-04-25T06:51:18;12.87;;;3.20;;
64932;SDS011;51446;53.850;10.662;2023-04-25T06:53:43;10.67;;;3.17;;
64932;SDS011;51446;53.850;10.662;2023-04-25T06:56:08;10.63;;;3.03;;
64932;SDS011;51446;53.850;10.662;2023-04-25T06:58:33;9.63;;;2.83;;
64932;SDS011;51446;53.850;10.662;2023-04-25T07:00:59;10.77;;;3.50;;
64932;SDS011;51446;53.850;10.662;2023-04-25T07:03:24;15.60;;;3.00;;
64932;SDS011;51446;53.850;10.662;2023-04-25T07:05:50;11.73;;;3.10;;
64932;SDS011;51446;53.850;10.662;2023-04-25T07:08:15;10.05;;;3.65;;
64932;SDS011;51446;53.850;10.662;2023-04-25T07:10:41;8.70;;;3.10;;
64932;SDS011;51446;53.850;10.662;2023-04-25T07:13:06;8.40;;;3.20;;
64932;SDS011;51446;53.850;10.662;2023-04-25T07:15:31;15.67;;;3.73;;
64932;SDS011;51446;53.850;10.662;2023-04-25T07:17:57;10.73;;;2.90;;
64932;SDS011;51446;53.850;10.662;2023-04-25T07:20:22;12.43;;;3.00;;
64932;SDS011;51446;53.850;10.662;2023-04-25T07:22:47;11.23;;;3.10;;
64932;SDS011;51446;53.850;10.662;2023-04-25T07:25:13;12.33;;;4.00;;
64932;SDS011;51446;53.850;10.662;2023-04-25T07:27:38;11.23;;;3.97;;
64932;SDS011;51446;53.850;10.662;2023-04-25T07:30:04;15.57;;;3.65;;
64932;SDS011;51446;53.850;10.662;2023-04-25T07:32:30;10.88;;;3.05;;
64932;SDS011;51446;53.850;10.662;2023-04-25T07:34:55;19.97;;;5.40;;
64932;SDS011;51446;53.850;10.662;2023-04-25T07:37:20;26.87;;;6.83;;
64932;SDS011;51446;53.850;10.662;2023-04-25T07:39:46;15.27;;;4.20;;
64932;SDS011;51446;53.850;10.662;2023-04-25T07:42:11;22.80;;;6.10;;
64932;SDS011;51446;53.850;10.662;2023-04-25T07:44:37;13.53;;;4.90;;
64932;SDS011;51446;53.850;10.662;2023-04-25T07:47:05;16.98;;;5.80;;
64932;SDS011;51446;53.850;10.662;2023-04-25T07:49:37;25.13;;;5.57;;
64932;SDS011;51446;53.850;10.662;2023-04-25T07:52:03;14.15;;;3.58;;
64932;SDS011;51446;53.850;10.662;2023-04-25T07:54:30;12.10;;;4.30;;
64932;SDS011;51446;53.850;10.662;2023-04-25T07:56:56;12.67;;;3.20;;
64932;SDS011;51446;53.850;10.662;2023-04-25T07:59:21;10.40;;;3.30;;
64932;SDS011;51446;53.850;10.662;2023-04-25T08:01:46;14.17;;;3.50;;
64932;SDS011;51446;53.850;10.662;2023-04-25T08:04:12;11.37;;;3.40;;
64932;SDS011;51446;53.850;10.662;2023-04-25T08:06:37;10.20;;;2.95;;
64932;SDS011;51446;53.850;10.662;2023-04-25T08:09:02;14.07;;;3.13;;
64932;SDS011;51446;53.850;10.662;2023-04-25T08:11:28;12.20;;;3.90;;
64932;SDS011;51446;53.850;10.662;2023-04-25T08:13:53;22.63;;;3.23;;
64932;SDS011;51446;53.850;10.662;2023-04-25T08:16:18;13.30;;;2.90;;
64932;SDS011;51446;53.850;10.662;2023-04-25T08:18:44;9.13;;;2.77;;
64932;SDS011;51446;53.850;10.662;2023-04-25T08:21:09;15.37;;;3.07;;
64932;SDS011;51446;53.850;10.662;2023-04-25T08:23:36;10.73;;;2.60;;
64932;SDS011;51446;53.850;10.662;2023-04-25T08:26:02;9.33;;;2.97;;
64932;SDS011;51446;53.850;10.662;2023-04-25T08:28:27;7.95;;;2.00;;
64932;SDS011;51446;53.850;10.662;2023-04-25T08:30:53;6.73;;;2.00;;
64932;SDS011;51446;53.850;10.662;2023-04-25T08:33:18;8.75;;;2.45;;
64932;SDS011;51446;53.850;10.662;2023-04-25T08:35:44;10.07;;;2.33;;
64932;SDS011;51446;53.850;10.662;2023-04-25T08:38:09;8.17;;;1.93;;
64932;SDS011;51446;53.850;10.662;2023-04-25T08:40:35;5.53;;;1.90;;
64932;SDS011;51446;53.850;10.662;2023-04-25T08:43:03;12.77;;;2.55;;
64932;SDS011;51446;53.850;10.662;2023-04-25T08:45:31;8.35;;;2.47;;
64932;SDS011;51446;53.850;10.662;2023-04-25T08:47:58;9.95;;;2.60;;
64932;SDS011;51446;53.850;10.662;2023-04-25T08:50:24;9.45;;;2.65;;
64932;SDS011;51446;53.850;10.662;2023-04-25T08:52:51;9.77;;;2.55;;
64932;SDS011;51446;53.850;10.662;2023-04-25T08:55:18;10.88;;;2.42;;
64932;SDS011;51446;53.850;10.662;2023-04-25T08:57:45;9.87;;;2.40;;
64932;SDS011;51446;53.850;10.662;2023-04-25T09:00:11;12.32;;;2.92;;
64932;SDS011;51446;53.850;10.662;2023-04-25T09:02:38;11.20;;;2.80;;
64932;SDS011;51446;53.850;10.662;2023-04-25T09:05:04;12.30;;;2.78;;
64932;SDS011;51446;53.850;10.662;2023-04-25T09:07:31;11.60;;;3.00;;
64932;SDS011;51446;53.850;10.662;2023-04-25T09:09:56;8.95;;;1.95;;
64932;SDS011;51446;53.850;10.662;2023-04-25T09:12:24;11.70;;;2.80;;
64932;SDS011;51446;53.850;10.662;2023-04-25T09:17:30;10.65;;;2.42;;
64932;SDS011;51446;53.850;10.662;2023-04-25T09:19:55;3.73;;;1.90;;
64932;SDS011;51446;53.850;10.662;2023-04-25T09:22:30;12.30;;;2.13;;
64932;SDS011;51446;53.850;10.662;2023-04-25T09:24:55;11.37;;;2.60;;
64932;SDS011;51446;53.850;10.662;2023-04-25T09:27:21;7.73;;;2.80;;
64932;SDS011;51446;53.850;10.662;2023-04-25T09:29:47;11.95;;;2.78;;
64932;SDS011;51446;53.850;10.662;2023-04-25T09:32:21;10.80;;;2.70;;
64932;SDS011;51446;53.850;10.662;2023-04-25T09:34:54;9.37;;;2.03;;
64932;SDS011;51446;53.850;10.662;2023-04-25T09:37:22;9.02;;;2.58;;
64932;SDS011;51446;53.850;10.662;2023-04-25T09:39:49;11.20;;;2.67;;
64932;SDS011;51446;53.850;10.662;2023-04-25T09:42:16;14.23;;;2.95;;
64932;SDS011;51446;53.850;10.662;2023-04-25T09:44:43;8.98;;;2.63;;
64932;SDS011;51446;53.850;10.662;2023-04-25T09:47:10;11.57;;;2.80;;
64932;SDS011;51446;53.850;10.662;2023-04-25T09:49:38;11.93;;;2.60;;
64932;SDS011;51446;53.850;10.662;2023-04-25T09:52:06;11.13;;;2.40;;
64932;SDS011;51446;53.850;10.662;2023-04-25T09:54:31;13.63;;;2.70;;
64932;SDS011;51446;53.850;10.662;2023-04-25T09:56:56;10.90;;;2.40;;
64932;SDS011;51446;53.850;10.662;2023-04-25T09:59:28;8.32;;;2.10;;
64932;SDS011;51446;53.850;10.662;2023-04-25T10:01:56;7.47;;;2.20;;
64932;SDS011;51446;53.850;10.662;2023-04-25T10:04:23;7.70;;;2.23;;
64932;SDS011;51446;53.850;10.662;2023-04-25T10:06:51;8.13;;;2.30;;
64932;SDS011;51446;53.850;10.662;2023-04-25T10:09:19;9.30;;;3.28;;
64932;SDS011;51446;53.850;10.662;2023-04-25T10:11:46;7.18;;;2.10;;
64932;SDS011;51446;53.850;10.662;2023-04-25T10:14:13;5.90;;;2.03;;
64932;SDS011;51446;53.850;10.662;2023-04-25T10:16:39;11.20;;;2.05;;
64932;SDS011;51446;53.850;10.662;2023-04-25T10:19:06;7.35;;;2.47;;
64932;SDS011;51446;53.850;10.662;2023-04-25T10:21:32;4.90;;;2.10;;
64932;SDS011;51446;53.850;10.662;2023-04-25T10:23:59;9.15;;;2.10;;
64932;SDS011;51446;53.850;10.662;2023-04-25T10:26:25;5.72;;;1.80;;
64932;SDS011;51446;53.850;10.662;2023-04-25T10:28:58;4.70;;;1.93;;
64932;SDS011;51446;53.850;10.662;2023-04-25T10:31:26;6.60;;;2.45;;
64932;SDS011;51446;53.850;10.662;2023-04-25T10:33:52;9.65;;;3.17;;
64932;SDS011;51446;53.850;10.662;2023-04-25T10:36:18;5.30;;;2.20;;
64932;SDS011;51446;53.850;10.662;2023-04-25T10:38:49;6.60;;;2.28;;
64932;SDS011;51446;53.850;10.662;2023-04-25T10:41:21;4.60;;;2.33;;
64932;SDS011;51446;53.850;10.662;2023-04-25T10:43:48;9.20;;;2.35;;
64932;SDS011;51446;53.850;10.662;2023-04-25T10:46:18;8.77;;;2.33;;
64932;SDS011;51446;53.850;10.662;2023-04-25T10:48:51;6.97;;;2.30;;
64932;SDS011;51446;53.850;10.662;2023-04-25T10:51:24;8.02;;;2.80;;
64932;SDS011;51446;53.850;10.662;2023-04-25T10:54:06;13.13;;;2.83;;
64932;SDS011;51446;53.850;10.662;2023-04-25T10:56:33;6.07;;;2.30;;
64932;SDS011;51446;53.850;10.662;2023-04-25T11:04:04;6.78;;;2.10;;
64932;SDS011;51446;53.850;10.662;2023-04-25T11:09:19;8.43;;;2.50;;
64932;SDS011;51446;53.850;10.662;2023-04-25T11:11:55;6.30;;;2.40;;
64932;SDS011;51446;53.850;10.662;2023-04-25T11:14:21;6.95;;;2.78;;
64932;SDS011;51446;53.850;10.662;2023-04-25T11:16:47;6.45;;;1.80;;
64932;SDS011;51446;53.850;10.662;2023-04-25T11:19:12;5.13;;;2.00;;
64932;SDS011;51446;53.850;10.662;2023-04-25T11:21:38;6.73;;;1.83;;
64932;SDS011;51446;53.850;10.662;2023-04-25T11:24:03;5.30;;;1.80;;
64932;SDS011;51446;53.850;10.662;2023-04-25T11:26:29;4.63;;;1.98;;
64932;SDS011;51446;53.850;10.662;2023-04-25T11:28:58;4.85;;;1.75;;
64932;SDS011;51446;53.850;10.662;2023-04-25T11:31:25;5.53;;;1.52;;
64932;SDS011;51446;53.850;10.662;2023-04-25T11:33:52;5.47;;;1.40;;
64932;SDS011;51446;53.850;10.662;2023-04-25T11:36:18;7.55;;;1.85;;
64932;SDS011;51446;53.850;10.662;2023-04-25T11:38:43;4.47;;;1.90;;
64932;SDS011;51446;53.850;10.662;2023-04-25T11:41:09;5.13;;;1.70;;
64932;SDS011;51446;53.850;10.662;2023-04-25T11:43:34;7.03;;;1.70;;
64932;SDS011;51446;53.850;10.662;2023-04-25T11:45:59;8.57;;;2.03;;
64932;SDS011;51446;53.850;10.662;2023-04-25T11:48:25;5.65;;;1.60;;
64932;SDS011;51446;53.850;10.662;2023-04-25T11:50:50;6.03;;;2.00;;
64932;SDS011;51446;53.850;10.662;2023-04-25T11:53:17;6.10;;;1.93;;
64932;SDS011;51446;53.850;10.662;2023-04-25T11:55:42;6.50;;;2.33;;
64932;SDS011;51446;53.850;10.662;2023-04-25T11:58:08;4.25;;;2.08;;
64932;SDS011;51446;53.850;10.662;2023-04-25T12:00:33;6.88;;;2.20;;
64932;SDS011;51446;53.850;10.662;2023-04-25T12:02:59;9.00;;;2.00;;
64932;SDS011;51446;53.850;10.662;2023-04-25T12:05:25;4.40;;;1.60;;
64932;SDS011;51446;53.850;10.662;2023-04-25T12:07:56;6.75;;;1.90;;
64932;SDS011;51446;53.850;10.662;2023-04-25T12:10:23;6.57;;;2.00;;
64932;SDS011;51446;53.850;10.662;2023-04-25T12:12:50;8.52;;;2.10;;
64932;SDS011;51446;53.850;10.662;2023-04-25T12:15:16;3.93;;;1.80;;
64932;SDS011;51446;53.850;10.662;2023-04-25T12:17:49;7.05;;;1.90;;
64932;SDS011;51446;53.850;10.662;2023-04-25T12:20:17;6.17;;;1.57;;
64932;SDS011;51446;53.850;10.662;2023-04-25T12:22:46;11.88;;;1.83;;
64932;SDS011;51446;53.850;10.662;2023-04-25T12:25:12;5.78;;;2.20;;
64932;SDS011;51446;53.850;10.662;2023-04-25T12:28:08;5.97;;;1.77;;
64932;SDS011;51446;53.850;10.662;2023-04-25T12:33:19;6.87;;;1.60;;
64932;SDS011;51446;53.850;10.662;2023-04-25T12:35:45;6.65;;;1.73;;
64932;SDS011;51446;53.850;10.662;2023-04-25T12:38:10;5.50;;;1.50;;
64932;SDS011;51446;53.850;10.662;2023-04-25T12:40:36;2.40;;;1.50;;
64932;SDS011;51446;53.850;10.662;2023-04-25T12:43:01;4.60;;;1.77;;
64932;SDS011;51446;53.850;10.662;2023-04-25T12:45:26;4.50;;;1.70;;
64932;SDS011;51446;53.850;10.662;2023-04-25T12:47:52;7.67;;;1.83;;
64932;SDS011;51446;53.850;10.662;2023-04-25T12:50:17;5.57;;;2.00;;
64932;SDS011;51446;53.850;10.662;2023-04-25T12:52:42;8.90;;;2.20;;
64932;SDS011;51446;53.850;10.662;2023-04-25T12:55:07;6.20;;;2.13;;
64932;SDS011;51446;53.850;10.662;2023-04-25T12:57:33;5.30;;;1.80;;
64932;SDS011;51446;53.850;10.662;2023-04-25T12:59:58;4.93;;;1.90;;
64932;SDS011;51446;53.850;10.662;2023-04-25T13:02:23;5.87;;;2.33;;
64932;SDS011;51446;53.850;10.662;2023-04-25T13:04:48;5.90;;;2.03;;
64932;SDS011;51446;53.850;10.662;2023-04-25T13:07:14;6.37;;;2.00;;
64932;SDS011;51446;53.850;10.662;2023-04-25T13:09:40;2.97;;;1.73;;
64932;SDS011;51446;53.850;10.662;2023-04-25T13:12:06;3.00;;;1.77;;
64932;SDS011;51446;53.850;10.662;2023-04-25T13:14:32;6.13;;;1.77;;
64932;SDS011;51446;53.850;10.662;2023-04-25T13:16:57;5.60;;;1.53;;
64932;SDS011;51446;53.850;10.662;2023-04-25T13:19:22;3.57;;;1.83;;
64932;SDS011;51446;53.850;10.662;2023-04-25T13:21:48;2.58;;;1.40;;
64932;SDS011;51446;53.850;10.662;2023-04-25T13:24:13;6.88;;;1.90;;
64932;SDS011;51446;53.850;10.662;2023-04-25T13:26:38;8.48;;;1.70;;
64932;SDS011;51446;53.850;10.662;2023-04-25T13:29:03;3.25;;;1.40;;
64932;SDS011;51446;53.850;10.662;2023-04-25T13:31:29;4.43;;;1.60;;
64932;SDS011;51446;53.850;10.662;2023-04-25T13:33:56;7.00;;;1.70;;
64932;SDS011;51446;53.850;10.662;2023-04-25T13:36:21;2.97;;;1.50;;
64932;SDS011;51446;53.850;10.662;2023-04-25T13:38:46;7.53;;;1.60;;
64932;SDS011;51446;53.850;10.662;2023-04-25T13:41:14;7.35;;;1.80;;
64932;SDS011;51446;53.850;10.662;2023-04-25T13:43:43;3.95;;;1.60;;
64932;SDS011;51446;53.850;10.662;2023-04-25T13:46:08;3.33;;;1.67;;
64932;SDS011;51446;53.850;10.662;2023-04-25T13:48:34;4.25;;;2.00;;
64932;SDS011;51446;53.850;10.662;2023-04-25T13:51:00;5.50;;;1.77;;
64932;SDS011;51446;53.850;10.662;2023-04-25T13:53:25;6.83;;;1.83;;
64932;SDS011;51446;53.850;10.662;2023-04-25T13:55:51;6.15;;;2.00;;
64932;SDS011;51446;53.850;10.662;2023-04-25T13:58:16;6.80;;;1.90;;
64932;SDS011;51446;53.850;10.662;2023-04-25T14:00:41;8.67;;;2.20;;
64932;SDS011;51446;53.850;10.662;2023-04-25T14:03:08;5.40;;;2.10;;
64932;SDS011;51446;53.850;10.662;2023-04-25T14:05:34;13.07;;;2.30;;
64932;SDS011;51446;53.850;10.662;2023-04-25T14:08:04;5.90;;;2.05;;
64932;SDS011;51446;53.850;10.662;2023-04-25T14:10:30;9.48;;;2.28;;
64932;SDS011;51446;53.850;10.662;2023-04-25T14:12:56;6.67;;;2.57;;
64932;SDS011;51446;53.850;10.662;2023-04-25T14:15:21;5.43;;;1.60;;
64932;SDS011;51446;53.850;10.662;2023-04-25T14:17:46;16.53;;;3.87;;
64932;SDS011;51446;53.850;10.662;2023-04-25T14:20:13;13.93;;;2.65;;
64932;SDS011;51446;53.850;10.662;2023-04-25T14:22:38;10.00;;;2.13;;
64932;SDS011;51446;53.850;10.662;2023-04-25T14:25:07;6.68;;;1.73;;
64932;SDS011;51446;53.850;10.662;2023-04-25T14:27:34;5.63;;;2.30;;
64932;SDS011;51446;53.850;10.662;2023-04-25T14:29:59;6.17;;;1.80;;
64932;SDS011;51446;53.850;10.662;2023-04-25T14:32:24;9.10;;;2.60;;
64932;SDS011;51446;53.850;10.662;2023-04-25T14:34:49;6.40;;;2.10;;